createdAt,value
2022-11-18T00:07:18.966Z,95822.16
2022-11-18T00:17:20.497Z,95807.72
2022-11-18T00:27:21.942Z,95790.28
2022-11-18T00:37:23.422Z,95797.91
2022-11-18T00:47:24.960Z,95783.38
2022-11-18T00:57:26.414Z,95779.91
2022-11-18T01:07:27.915Z,95777.94
2022-11-18T01:17:30.966Z,95777.94
2022-11-18T01:27:32.492Z,95773.53
2022-11-18T01:37:33.986Z,95756.84
2022-11-18T01:47:45.126Z,95761.84
2022-11-18T01:57:49.841Z,95789.09
2022-11-18T02:07:51.350Z,95791.41
2022-11-18T02:18:12.524Z,95791.59
2022-11-18T02:28:35.464Z,95800.38
2022-11-18T02:38:50.765Z,95795.59
2022-11-18T02:48:54.162Z,95798.63
2022-11-18T02:58:55.714Z,95800.28
2022-11-18T03:09:15.258Z,95796.88
2022-11-18T03:19:35.819Z,95792.34
2022-11-18T03:29:44.579Z,95788.03
2022-11-18T03:39:53.819Z,95803.97
2022-11-18T03:50:04.105Z,95821.16
2022-11-18T04:00:15.892Z,95821.03
2022-11-18T04:10:37.712Z,95839.38
2022-11-18T04:20:39.404Z,95834.41
2022-11-18T04:30:41.032Z,95840.75
2022-11-18T04:40:42.595Z,95839.69
2022-11-18T04:50:44.034Z,95830.75
2022-11-18T05:00:45.503Z,95817.84
2022-11-18T05:10:46.973Z,95814.38
2022-11-18T05:20:48.413Z,95814.56
2022-11-18T05:30:49.907Z,95819.13
2022-11-18T05:40:51.351Z,95825.56
2022-11-18T05:50:54.628Z,95832.47
2022-11-18T06:01:03.155Z,95839.75
2022-11-18T06:11:08.744Z,95854.00
2022-11-18T06:21:10.321Z,95861.34
2022-11-18T06:31:11.842Z,95883.25
2022-11-18T06:41:13.363Z,95896.63
2022-11-18T06:51:15.264Z,95912.19
2022-11-18T07:01:19.553Z,95914.34
2022-11-18T07:11:24.242Z,95938.94
2022-11-18T07:21:27.997Z,95948.81
2022-11-18T07:31:29.651Z,95959.94
2022-11-18T07:41:31.264Z,95981.44
2022-11-18T07:51:35.604Z,95989.91
2022-11-18T08:01:37.130Z,96003.91
2022-11-18T08:11:38.761Z,96018.66
2022-11-18T08:21:40.225Z,96042.91
2022-11-18T08:31:41.741Z,96044.81
2022-11-18T08:41:44.592Z,96044.50
2022-11-18T08:51:46.112Z,96055.66
2022-11-18T09:01:47.645Z,96059.00
2022-11-18T09:11:49.160Z,96063.31
2022-11-18T09:21:50.873Z,96078.97
2022-11-18T09:31:53.753Z,96087.56
2022-11-18T09:42:12.336Z,96095.56
2022-11-18T09:52:20.030Z,96110.22
2022-11-18T10:02:58.179Z,96115.53
2022-11-18T10:13:13.033Z,96113.66
2022-11-18T10:23:34.135Z,96120.13
2022-11-18T10:33:36.564Z,96119.34
2022-11-18T10:43:44.059Z,96126.41
2022-11-18T10:53:45.505Z,96119.69
2022-11-18T11:04:12.789Z,96127.84
2022-11-18T11:14:28.487Z,96132.09
2022-11-18T11:24:29.937Z,96137.91
2022-11-18T11:34:50.193Z,96131.16
2022-11-18T11:45:06.496Z,96135.16
2022-11-18T11:55:31.894Z,96141.38
2022-11-18T12:05:39.387Z,96151.34
2022-11-18T12:16:01.919Z,96156.41
2022-11-18T12:26:06.357Z,96163.06
2022-11-18T12:36:08.229Z,96165.03
2022-11-18T12:46:09.704Z,96168.41
2022-11-18T12:56:17.206Z,96177.88
2022-11-18T13:06:21.941Z,96177.69
2022-11-18T13:16:45.198Z,96178.97
2022-11-18T13:26:48.487Z,96184.75
2022-11-18T13:36:52.347Z,96191.34
2022-11-18T13:47:19.280Z,96200.00
2022-11-18T13:57:24.786Z,96200.63
2022-11-18T14:07:35.290Z,96200.47
2022-11-18T14:17:36.944Z,96205.59
2022-11-18T14:27:43.788Z,96215.97
2022-11-18T14:37:45.794Z,96214.69
2022-11-18T14:47:47.278Z,96220.91
2022-11-18T14:57:48.733Z,96232.25
2022-11-18T15:07:50.193Z,96239.91
2022-11-18T15:17:54.099Z,96252.34
2022-11-18T15:27:55.748Z,96268.03
2022-11-18T15:37:59.381Z,96269.44
2022-11-18T15:48:00.820Z,96270.00
2022-11-18T15:58:02.276Z,96277.78
2022-11-18T16:08:03.810Z,96296.22
2022-11-18T16:18:05.773Z,96295.22
2022-11-18T16:28:07.619Z,96305.78
2022-11-18T16:38:09.609Z,96316.75
2022-11-18T16:48:12.111Z,96336.41
2022-11-18T16:58:14.781Z,96343.78
2022-11-18T17:08:16.248Z,96353.25
2022-11-18T17:18:17.690Z,96355.34
2022-11-18T17:28:19.140Z,96361.28
2022-11-18T17:38:20.564Z,96357.34
2022-11-18T17:48:24.332Z,96374.81
2022-11-18T17:58:25.798Z,96376.31
2022-11-18T18:08:27.287Z,96401.19
2022-11-18T18:18:29.428Z,96408.69
2022-11-18T18:28:31.380Z,96414.63
2022-11-18T18:38:34.696Z,96415.53
2022-11-18T18:48:36.223Z,96423.41
2022-11-18T18:58:37.682Z,96428.72
2022-11-18T19:08:39.177Z,96435.88
2022-11-18T19:18:40.852Z,96446.81
2022-11-18T19:28:42.552Z,96453.13
2022-11-18T19:38:44.796Z,96469.09
2022-11-18T19:48:49.264Z,96480.13
2022-11-18T19:58:50.790Z,96479.38
2022-11-18T20:08:53.691Z,96483.69
2022-11-18T20:19:02.892Z,96491.88
2022-11-18T20:29:08.617Z,96490.13
2022-11-18T20:39:15.503Z,96501.94
2022-11-18T20:49:17.191Z,96511.78
2022-11-18T20:59:18.993Z,96507.81
2022-11-18T21:09:21.257Z,96515.44
2022-11-18T21:19:23.018Z,96525.97
2022-11-18T21:29:27.138Z,96522.78
2022-11-18T21:39:28.603Z,96539.06
2022-11-18T21:49:30.230Z,96539.13
2022-11-18T21:59:31.777Z,96532.31
2022-11-18T22:09:36.845Z,96526.00
2022-11-18T22:19:38.564Z,96539.66
2022-11-18T22:29:40.004Z,96540.69
2022-11-18T22:39:42.273Z,96566.44
2022-11-18T22:49:43.716Z,96568.81
2022-11-18T22:59:45.169Z,96571.44
2022-11-18T23:09:46.604Z,96561.16
2022-11-18T23:19:48.121Z,96574.06
2022-11-18T23:29:49.590Z,96578.53
2022-11-18T23:39:51.030Z,96585.88
2022-11-18T23:49:52.593Z,96593.50
2022-11-18T23:59:54.042Z,96591.63
